sensor_id;sensor_type;location;lat;lon;timestamp;P1;durP1;ratioP1;P2;durP2;ratioP2
2638;SDS011;1329;51.384;7.122;2023-05-10T00:01:11;7.93;;;3.72;;
2638;SDS011;1329;51.384;7.122;2023-05-10T00:03:39;3.45;;;3.15;;
2638;SDS011;1329;51.384;7.122;2023-05-10T00:06:06;3.90;;;3.60;;
2638;SDS011;1329;51.384;7.122;2023-05-10T00:08:33;4.28;;;3.88;;
2638;SDS011;1329;51.384;7.122;2023-05-10T00:11:00;6.18;;;4.18;;
2638;SDS011;1329;51.384;7.122;2023-05-10T00:13:27;4.80;;;4.40;;
2638;SDS011;1329;51.384;7.122;2023-05-10T00:15:54;5.38;;;4.65;;
2638;SDS011;1329;51.384;7.122;2023-05-10T00:18:21;5.68;;;5.18;;
2638;SDS011;1329;51.384;7.122;2023-05-10T00:20:49;9.00;;;5.65;;
2638;SDS011;1329;51.384;7.122;2023-05-10T00:23:16;6.30;;;5.40;;
2638;SDS011;1329;51.384;7.122;2023-05-10T00:25:43;7.32;;;5.88;;
2638;SDS011;1329;51.384;7.122;2023-05-10T00:28:09;6.13;;;5.53;;
2638;SDS011;1329;51.384;7.122;2023-05-10T00:30:36;6.15;;;5.55;;
2638;SDS011;1329;51.384;7.122;2023-05-10T00:33:03;7.20;;;6.45;;
2638;SDS011;1329;51.384;7.122;2023-05-10T00:35:30;7.32;;;6.32;;
2638;SDS011;1329;51.384;7.122;2023-05-10T00:37:59;7.10;;;6.38;;
2638;SDS011;1329;51.384;7.122;2023-05-10T00:40:26;7.20;;;6.50;;
2638;SDS011;1329;51.384;7.122;2023-05-10T00:42:53;7.32;;;6.63;;
2638;SDS011;1329;51.384;7.122;2023-05-10T00:45:20;7.50;;;6.40;;
2638;SDS011;1329;51.384;7.122;2023-05-10T00:47:47;7.40;;;6.38;;
2638;SDS011;1329;51.384;7.122;2023-05-10T00:50:14;7.03;;;6.32;;
2638;SDS011;1329;51.384;7.122;2023-05-10T00:52:41;6.88;;;5.65;;
2638;SDS011;1329;51.384;7.122;2023-05-10T00:55:10;7.93;;;5.60;;
2638;SDS011;1329;51.384;7.122;2023-05-10T00:57:38;6.85;;;5.50;;
2638;SDS011;1329;51.384;7.122;2023-05-10T01:00:05;6.13;;;5.47;;
2638;SDS011;1329;51.384;7.122;2023-05-10T01:02:34;6.70;;;5.28;;
2638;SDS011;1329;51.384;7.122;2023-05-10T01:05:02;7.25;;;5.85;;
2638;SDS011;1329;51.384;7.122;2023-05-10T01:07:30;6.28;;;5.68;;
2638;SDS011;1329;51.384;7.122;2023-05-10T01:09:57;7.45;;;6.32;;
2638;SDS011;1329;51.384;7.122;2023-05-10T01:12:26;6.88;;;6.18;;
2638;SDS011;1329;51.384;7.122;2023-05-10T01:14:54;7.88;;;6.90;;
2638;SDS011;1329;51.384;7.122;2023-05-10T01:17:21;8.52;;;7.72;;
2638;SDS011;1329;51.384;7.122;2023-05-10T01:19:49;8.02;;;7.22;;
2638;SDS011;1329;51.384;7.122;2023-05-10T01:22:24;8.25;;;7.45;;
2638;SDS011;1329;51.384;7.122;2023-05-10T01:25:23;8.40;;;7.60;;
2638;SDS011;1329;51.384;7.122;2023-05-10T01:28:32;9.38;;;8.57;;
2638;SDS011;1329;51.384;7.122;2023-05-10T01:31:22;9.20;;;8.40;;
2638;SDS011;1329;51.384;7.122;2023-05-10T01:34:02;11.70;;;9.00;;
2638;SDS011;1329;51.384;7.122;2023-05-10T01:36:37;10.35;;;9.35;;
2638;SDS011;1329;51.384;7.122;2023-05-10T01:39:21;10.80;;;9.70;;
2638;SDS011;1329;51.384;7.122;2023-05-10T01:41:52;11.63;;;10.52;;
2638;SDS011;1329;51.384;7.122;2023-05-10T01:44:40;12.02;;;10.85;;
2638;SDS011;1329;51.384;7.122;2023-05-10T01:47:16;12.45;;;11.30;;
2638;SDS011;1329;51.384;7.122;2023-05-10T01:49:52;12.23;;;11.02;;
2638;SDS011;1329;51.384;7.122;2023-05-10T01:52:25;13.13;;;11.90;;
2638;SDS011;1329;51.384;7.122;2023-05-10T01:54:59;13.95;;;12.65;;
2638;SDS011;1329;51.384;7.122;2023-05-10T01:57:32;14.30;;;12.90;;
2638;SDS011;1329;51.384;7.122;2023-05-10T02:00:04;14.48;;;12.98;;
2638;SDS011;1329;51.384;7.122;2023-05-10T02:02:35;14.45;;;12.98;;
2638;SDS011;1329;51.384;7.122;2023-05-10T02:05:08;13.60;;;12.25;;
2638;SDS011;1329;51.384;7.122;2023-05-10T02:07:38;15.27;;;12.38;;
2638;SDS011;1329;51.384;7.122;2023-05-10T02:10:07;13.32;;;11.93;;
2638;SDS011;1329;51.384;7.122;2023-05-10T02:12:37;13.95;;;12.55;;
2638;SDS011;1329;51.384;7.122;2023-05-10T02:15:08;14.35;;;12.85;;
2638;SDS011;1329;51.384;7.122;2023-05-10T02:17:40;13.95;;;12.55;;
2638;SDS011;1329;51.384;7.122;2023-05-10T02:20:11;13.50;;;12.13;;
2638;SDS011;1329;51.384;7.122;2023-05-10T02:22:39;11.77;;;10.60;;
2638;SDS011;1329;51.384;7.122;2023-05-10T02:25:08;11.75;;;10.65;;
2638;SDS011;1329;51.384;7.122;2023-05-10T02:27:37;11.00;;;9.95;;
2638;SDS011;1329;51.384;7.122;2023-05-10T02:30:08;11.23;;;9.55;;
2638;SDS011;1329;51.384;7.122;2023-05-10T02:32:36;26.48;;;11.77;;
2638;SDS011;1329;51.384;7.122;2023-05-10T02:35:05;12.18;;;10.98;;
2638;SDS011;1329;51.384;7.122;2023-05-10T02:37:35;12.30;;;11.00;;
2638;SDS011;1329;51.384;7.122;2023-05-10T02:40:04;13.13;;;11.70;;
2638;SDS011;1329;51.384;7.122;2023-05-10T02:42:35;14.27;;;12.63;;
2638;SDS011;1329;51.384;7.122;2023-05-10T02:45:05;14.10;;;12.10;;
2638;SDS011;1329;51.384;7.122;2023-05-10T02:47:38;14.27;;;12.77;;
2638;SDS011;1329;51.384;7.122;2023-05-10T02:50:05;17.00;;;12.25;;
2638;SDS011;1329;51.384;7.122;2023-05-10T02:52:38;15.13;;;13.52;;
2638;SDS011;1329;51.384;7.122;2023-05-10T02:55:09;14.65;;;12.18;;
2638;SDS011;1329;51.384;7.122;2023-05-10T02:57:41;16.63;;;14.02;;
2638;SDS011;1329;51.384;7.122;2023-05-10T03:00:15;15.60;;;13.60;;
2638;SDS011;1329;51.384;7.122;2023-05-10T03:02:42;15.05;;;13.43;;
2638;SDS011;1329;51.384;7.122;2023-05-10T03:05:09;15.85;;;14.00;;
2638;SDS011;1329;51.384;7.122;2023-05-10T03:07:37;14.13;;;12.63;;
2638;SDS011;1329;51.384;7.122;2023-05-10T03:10:05;15.75;;;12.77;;
2638;SDS011;1329;51.384;7.122;2023-05-10T03:12:37;14.25;;;12.85;;
2638;SDS011;1329;51.384;7.122;2023-05-10T03:15:18;14.05;;;12.55;;
2638;SDS011;1329;51.384;7.122;2023-05-10T03:17:54;14.18;;;12.68;;
2638;SDS011;1329;51.384;7.122;2023-05-10T03:20:29;13.80;;;12.40;;
2638;SDS011;1329;51.384;7.122;2023-05-10T03:23:04;14.68;;;12.73;;
2638;SDS011;1329;51.384;7.122;2023-05-10T03:25:38;17.67;;;12.13;;
2638;SDS011;1329;51.384;7.122;2023-05-10T03:28:06;13.70;;;12.30;;
2638;SDS011;1329;51.384;7.122;2023-05-10T03:30:35;14.07;;;12.02;;
2638;SDS011;1329;51.384;7.122;2023-05-10T03:33:04;14.05;;;12.00;;
2638;SDS011;1329;51.384;7.122;2023-05-10T03:35:32;14.27;;;12.85;;
2638;SDS011;1329;51.384;7.122;2023-05-10T03:37:59;15.48;;;13.85;;
2638;SDS011;1329;51.384;7.122;2023-05-10T03:40:27;15.32;;;13.38;;
2638;SDS011;1329;51.384;7.122;2023-05-10T03:42:57;15.50;;;12.85;;
2638;SDS011;1329;51.384;7.122;2023-05-10T03:45:24;15.30;;;13.30;;
2638;SDS011;1329;51.384;7.122;2023-05-10T03:47:51;15.25;;;13.63;;
2638;SDS011;1329;51.384;7.122;2023-05-10T03:50:19;16.67;;;12.70;;
2638;SDS011;1329;51.384;7.122;2023-05-10T03:52:46;14.30;;;12.40;;
2638;SDS011;1329;51.384;7.122;2023-05-10T03:55:13;14.40;;;11.85;;
2638;SDS011;1329;51.384;7.122;2023-05-10T03:57:42;16.15;;;12.23;;
2638;SDS011;1329;51.384;7.122;2023-05-10T04:00:10;14.18;;;11.60;;
2638;SDS011;1329;51.384;7.122;2023-05-10T04:02:38;13.05;;;11.48;;
2638;SDS011;1329;51.384;7.122;2023-05-10T04:05:05;16.10;;;11.82;;
2638;SDS011;1329;51.384;7.122;2023-05-10T04:07:32;13.93;;;11.50;;
2638;SDS011;1329;51.384;7.122;2023-05-10T04:09:59;13.30;;;11.77;;
2638;SDS011;1329;51.384;7.122;2023-05-10T04:12:29;12.95;;;11.05;;
2638;SDS011;1329;51.384;7.122;2023-05-10T04:14:57;16.42;;;12.05;;
2638;SDS011;1329;51.384;7.122;2023-05-10T04:17:25;16.05;;;12.18;;
2638;SDS011;1329;51.384;7.122;2023-05-10T04:19:54;13.55;;;12.13;;
2638;SDS011;1329;51.384;7.122;2023-05-10T04:22:22;14.77;;;12.63;;
2638;SDS011;1329;51.384;7.122;2023-05-10T04:24:49;14.88;;;12.73;;
2638;SDS011;1329;51.384;7.122;2023-05-10T04:27:16;15.70;;;13.50;;
2638;SDS011;1329;51.384;7.122;2023-05-10T04:29:44;15.38;;;12.65;;
2638;SDS011;1329;51.384;7.122;2023-05-10T04:32:12;16.45;;;13.05;;
2638;SDS011;1329;51.384;7.122;2023-05-10T04:34:41;21.13;;;14.27;;
2638;SDS011;1329;51.384;7.122;2023-05-10T04:37:08;20.67;;;15.48;;
2638;SDS011;1329;51.384;7.122;2023-05-10T04:39:35;21.25;;;16.67;;
2638;SDS011;1329;51.384;7.122;2023-05-10T04:42:02;24.95;;;16.55;;
2638;SDS011;1329;51.384;7.122;2023-05-10T04:44:31;28.23;;;18.23;;
2638;SDS011;1329;51.384;7.122;2023-05-10T04:46:58;24.02;;;17.25;;
2638;SDS011;1329;51.384;7.122;2023-05-10T04:49:28;24.65;;;17.83;;
2638;SDS011;1329;51.384;7.122;2023-05-10T04:51:55;23.55;;;17.95;;
2638;SDS011;1329;51.384;7.122;2023-05-10T04:54:23;26.08;;;18.35;;
2638;SDS011;1329;51.384;7.122;2023-05-10T04:56:50;24.90;;;18.55;;
2638;SDS011;1329;51.384;7.122;2023-05-10T04:59:17;24.17;;;18.20;;
2638;SDS011;1329;51.384;7.122;2023-05-10T05:01:44;26.55;;;18.15;;
2638;SDS011;1329;51.384;7.122;2023-05-10T05:04:11;27.30;;;19.67;;
2638;SDS011;1329;51.384;7.122;2023-05-10T05:06:41;25.50;;;18.67;;
2638;SDS011;1329;51.384;7.122;2023-05-10T05:09:08;26.55;;;19.27;;
2638;SDS011;1329;51.384;7.122;2023-05-10T05:11:36;25.77;;;19.23;;
2638;SDS011;1329;51.384;7.122;2023-05-10T05:14:04;25.55;;;18.83;;
2638;SDS011;1329;51.384;7.122;2023-05-10T05:16:31;26.95;;;18.50;;
2638;SDS011;1329;51.384;7.122;2023-05-10T05:18:59;26.67;;;18.88;;
2638;SDS011;1329;51.384;7.122;2023-05-10T05:21:26;27.23;;;19.60;;
2638;SDS011;1329;51.384;7.122;2023-05-10T05:23:55;27.73;;;20.23;;
2638;SDS011;1329;51.384;7.122;2023-05-10T05:26:22;26.88;;;19.35;;
2638;SDS011;1329;51.384;7.122;2023-05-10T05:28:50;28.02;;;19.90;;
2638;SDS011;1329;51.384;7.122;2023-05-10T05:31:19;28.98;;;20.73;;
2638;SDS011;1329;51.384;7.122;2023-05-10T05:33:47;29.85;;;21.23;;
2638;SDS011;1329;51.384;7.122;2023-05-10T05:36:14;28.63;;;20.80;;
2638;SDS011;1329;51.384;7.122;2023-05-10T05:38:41;29.75;;;21.23;;
2638;SDS011;1329;51.384;7.122;2023-05-10T05:41:10;30.58;;;21.55;;
2638;SDS011;1329;51.384;7.122;2023-05-10T05:43:37;31.05;;;21.60;;
2638;SDS011;1329;51.384;7.122;2023-05-10T05:46:04;30.60;;;22.67;;
2638;SDS011;1329;51.384;7.122;2023-05-10T05:48:32;33.42;;;23.48;;
2638;SDS011;1329;51.384;7.122;2023-05-10T05:50:59;28.63;;;21.63;;
2638;SDS011;1329;51.384;7.122;2023-05-10T05:53:26;30.02;;;21.67;;
2638;SDS011;1329;51.384;7.122;2023-05-10T05:55:53;30.40;;;22.15;;
2638;SDS011;1329;51.384;7.122;2023-05-10T05:58:24;32.63;;;23.48;;
2638;SDS011;1329;51.384;7.122;2023-05-10T06:00:52;28.50;;;21.58;;
2638;SDS011;1329;51.384;7.122;2023-05-10T06:03:19;29.40;;;21.30;;
2638;SDS011;1329;51.384;7.122;2023-05-10T06:05:46;28.73;;;21.98;;
2638;SDS011;1329;51.384;7.122;2023-05-10T06:08:13;28.73;;;21.63;;
2638;SDS011;1329;51.384;7.122;2023-05-10T06:10:41;27.80;;;21.20;;
2638;SDS011;1329;51.384;7.122;2023-05-10T06:13:08;31.73;;;21.77;;
2638;SDS011;1329;51.384;7.122;2023-05-10T06:15:36;29.27;;;22.20;;
2638;SDS011;1329;51.384;7.122;2023-05-10T06:18:03;29.95;;;21.30;;
2638;SDS011;1329;51.384;7.122;2023-05-10T06:20:31;29.35;;;19.85;;
2638;SDS011;1329;51.384;7.122;2023-05-10T06:22:58;29.30;;;21.15;;
2638;SDS011;1329;51.384;7.122;2023-05-10T06:25:25;26.52;;;19.73;;
2638;SDS011;1329;51.384;7.122;2023-05-10T06:27:52;27.38;;;20.42;;
2638;SDS011;1329;51.384;7.122;2023-05-10T06:30:23;22.73;;;18.88;;
2638;SDS011;1329;51.384;7.122;2023-05-10T06:32:55;27.25;;;20.38;;
2638;SDS011;1329;51.384;7.122;2023-05-10T06:35:22;27.05;;;20.17;;
2638;SDS011;1329;51.384;7.122;2023-05-10T06:37:49;25.95;;;19.75;;
2638;SDS011;1329;51.384;7.122;2023-05-10T06:40:17;26.88;;;20.40;;
2638;SDS011;1329;51.384;7.122;2023-05-10T06:42:45;25.75;;;20.65;;
2638;SDS011;1329;51.384;7.122;2023-05-10T06:45:12;24.83;;;20.10;;
2638;SDS011;1329;51.384;7.122;2023-05-10T06:47:40;28.90;;;21.33;;
2638;SDS011;1329;51.384;7.122;2023-05-10T06:50:09;24.80;;;19.52;;
2638;SDS011;1329;51.384;7.122;2023-05-10T06:52:37;28.27;;;22.08;;
2638;SDS011;1329;51.384;7.122;2023-05-10T06:55:05;27.35;;;21.35;;
2638;SDS011;1329;51.384;7.122;2023-05-10T06:57:33;32.17;;;21.92;;
2638;SDS011;1329;51.384;7.122;2023-05-10T07:00:01;32.78;;;24.02;;
2638;SDS011;1329;51.384;7.122;2023-05-10T07:02:32;30.45;;;23.33;;
2638;SDS011;1329;51.384;7.122;2023-05-10T07:04:59;35.25;;;23.88;;
2638;SDS011;1329;51.384;7.122;2023-05-10T07:07:27;35.53;;;26.10;;
2638;SDS011;1329;51.384;7.122;2023-05-10T07:09:54;36.85;;;25.48;;
2638;SDS011;1329;51.384;7.122;2023-05-10T07:12:22;33.83;;;23.73;;
2638;SDS011;1329;51.384;7.122;2023-05-10T07:14:50;33.15;;;23.13;;
2638;SDS011;1329;51.384;7.122;2023-05-10T07:17:17;30.05;;;22.65;;
2638;SDS011;1329;51.384;7.122;2023-05-10T07:19:44;32.10;;;21.73;;
2638;SDS011;1329;51.384;7.122;2023-05-10T07:22:11;28.27;;;21.60;;
2638;SDS011;1329;51.384;7.122;2023-05-10T07:24:39;28.92;;;21.02;;
2638;SDS011;1329;51.384;7.122;2023-05-10T07:27:07;25.60;;;19.58;;
2638;SDS011;1329;51.384;7.122;2023-05-10T07:29:34;26.42;;;19.67;;
2638;SDS011;1329;51.384;7.122;2023-05-10T07:32:01;24.25;;;17.23;;
2638;SDS011;1329;51.384;7.122;2023-05-10T07:34:28;25.73;;;18.30;;
2638;SDS011;1329;51.384;7.122;2023-05-10T07:36:57;21.83;;;16.58;;
2638;SDS011;1329;51.384;7.122;2023-05-10T07:39:25;23.80;;;16.42;;
2638;SDS011;1329;51.384;7.122;2023-05-10T07:41:53;22.90;;;16.27;;
2638;SDS011;1329;51.384;7.122;2023-05-10T07:44:21;21.67;;;16.08;;
2638;SDS011;1329;51.384;7.122;2023-05-10T07:46:48;22.58;;;17.05;;
2638;SDS011;1329;51.384;7.122;2023-05-10T07:49:15;23.23;;;17.13;;
2638;SDS011;1329;51.384;7.122;2023-05-10T07:51:42;23.73;;;17.23;;
2638;SDS011;1329;51.384;7.122;2023-05-10T07:54:09;24.90;;;18.02;;
2638;SDS011;1329;51.384;7.122;2023-05-10T07:56:37;27.58;;;18.23;;
2638;SDS011;1329;51.384;7.122;2023-05-10T07:59:08;26.77;;;19.10;;
2638;SDS011;1329;51.384;7.122;2023-05-10T08:01:35;25.85;;;18.27;;
2638;SDS011;1329;51.384;7.122;2023-05-10T08:04:02;26.13;;;17.83;;
2638;SDS011;1329;51.384;7.122;2023-05-10T08:06:29;25.77;;;18.40;;
2638;SDS011;1329;51.384;7.122;2023-05-10T08:08:57;26.90;;;18.63;;
2638;SDS011;1329;51.384;7.122;2023-05-10T08:11:24;29.33;;;19.92;;
2638;SDS011;1329;51.384;7.122;2023-05-10T08:13:52;26.90;;;18.95;;
2638;SDS011;1329;51.384;7.122;2023-05-10T08:16:22;30.00;;;18.85;;
2638;SDS011;1329;51.384;7.122;2023-05-10T08:18:49;29.60;;;18.10;;
2638;SDS011;1329;51.384;7.122;2023-05-10T08:21:16;26.70;;;18.75;;
2638;SDS011;1329;51.384;7.122;2023-05-10T08:23:43;25.42;;;17.30;;
2638;SDS011;1329;51.384;7.122;2023-05-10T08:26:10;25.42;;;17.00;;
2638;SDS011;1329;51.384;7.122;2023-05-10T08:28:37;24.33;;;15.13;;
2638;SDS011;1329;51.384;7.122;2023-05-10T08:31:05;16.83;;;12.82;;
2638;SDS011;1329;51.384;7.122;2023-05-10T08:33:33;16.25;;;11.88;;
2638;SDS011;1329;51.384;7.122;2023-05-10T08:36:00;16.02;;;12.05;;
2638;SDS011;1329;51.384;7.122;2023-05-10T08:38:28;14.02;;;10.55;;
2638;SDS011;1329;51.384;7.122;2023-05-10T08:40:56;12.32;;;9.63;;
2638;SDS011;1329;51.384;7.122;2023-05-10T08:43:25;13.55;;;9.90;;
2638;SDS011;1329;51.384;7.122;2023-05-10T08:45:55;13.30;;;10.43;;
2638;SDS011;1329;51.384;7.122;2023-05-10T08:48:22;13.73;;;11.20;;
2638;SDS011;1329;51.384;7.122;2023-05-10T08:50:53;14.30;;;11.73;;
2638;SDS011;1329;51.384;7.122;2023-05-10T08:53:21;17.33;;;11.98;;
2638;SDS011;1329;51.384;7.122;2023-05-10T08:55:51;14.10;;;11.63;;
2638;SDS011;1329;51.384;7.122;2023-05-10T08:58:19;15.45;;;12.43;;
2638;SDS011;1329;51.384;7.122;2023-05-10T09:00:46;14.88;;;12.25;;
2638;SDS011;1329;51.384;7.122;2023-05-10T09:03:15;18.15;;;12.75;;
2638;SDS011;1329;51.384;7.122;2023-05-10T09:05:44;16.30;;;12.82;;
2638;SDS011;1329;51.384;7.122;2023-05-10T09:08:12;14.80;;;12.60;;
2638;SDS011;1329;51.384;7.122;2023-05-10T09:10:41;16.95;;;12.82;;
2638;SDS011;1329;51.384;7.122;2023-05-10T09:13:09;14.35;;;12.38;;
2638;SDS011;1329;51.384;7.122;2023-05-10T09:15:37;16.73;;;13.18;;
2638;SDS011;1329;51.384;7.122;2023-05-10T09:18:04;16.92;;;13.23;;
2638;SDS011;1329;51.384;7.122;2023-05-10T09:20:31;17.10;;;12.75;;
2638;SDS011;1329;51.384;7.122;2023-05-10T09:22:58;19.98;;;13.13;;
2638;SDS011;1329;51.384;7.122;2023-05-10T09:25:27;18.58;;;12.68;;
2638;SDS011;1329;51.384;7.122;2023-05-10T09:27:54;20.08;;;13.45;;
2638;SDS011;1329;51.384;7.122;2023-05-10T09:30:24;17.08;;;13.15;;
2638;SDS011;1329;51.384;7.122;2023-05-10T09:32:53;18.52;;;13.93;;
2638;SDS011;1329;51.384;7.122;2023-05-10T09:35:22;19.45;;;14.20;;
2638;SDS011;1329;51.384;7.122;2023-05-10T09:37:52;21.77;;;16.25;;
2638;SDS011;1329;51.384;7.122;2023-05-10T09:40:20;18.52;;;14.50;;
2638;SDS011;1329;51.384;7.122;2023-05-10T09:42:54;20.63;;;15.27;;
2638;SDS011;1329;51.384;7.122;2023-05-10T09:45:23;24.23;;;15.70;;
2638;SDS011;1329;51.384;7.122;2023-05-10T09:47:52;21.65;;;16.27;;
2638;SDS011;1329;51.384;7.122;2023-05-10T09:50:20;19.33;;;14.82;;
2638;SDS011;1329;51.384;7.122;2023-05-10T09:52:51;25.60;;;16.38;;
2638;SDS011;1329;51.384;7.122;2023-05-10T09:55:20;23.58;;;16.60;;
2638;SDS011;1329;51.384;7.122;2023-05-10T09:57:49;24.70;;;18.15;;
2638;SDS011;1329;51.384;7.122;2023-05-10T10:00:27;26.17;;;18.92;;
2638;SDS011;1329;51.384;7.122;2023-05-10T10:03:01;26.23;;;18.70;;
2638;SDS011;1329;51.384;7.122;2023-05-10T10:05:29;26.10;;;19.15;;
2638;SDS011;1329;51.384;7.122;2023-05-10T10:07:56;25.65;;;18.98;;
2638;SDS011;1329;51.384;7.122;2023-05-10T10:10:25;25.40;;;18.98;;
2638;SDS011;1329;51.384;7.122;2023-05-10T10:12:53;26.25;;;18.90;;
2638;SDS011;1329;51.384;7.122;2023-05-10T10:15:22;24.60;;;18.30;;
2638;SDS011;1329;51.384;7.122;2023-05-10T10:17:51;24.27;;;17.25;;
2638;SDS011;1329;51.384;7.122;2023-05-10T10:20:19;23.90;;;17.70;;
2638;SDS011;1329;51.384;7.122;2023-05-10T10:22:49;23.15;;;17.70;;
2638;SDS011;1329;51.384;7.122;2023-05-10T10:25:16;21.92;;;16.60;;
2638;SDS011;1329;51.384;7.122;2023-05-10T10:27:56;20.50;;;16.15;;
2638;SDS011;1329;51.384;7.122;2023-05-10T10:30:39;20.50;;;16.65;;
2638;SDS011;1329;51.384;7.122;2023-05-10T10:33:13;22.77;;;16.17;;
2638;SDS011;1329;51.384;7.122;2023-05-10T10:35:57;17.90;;;14.68;;
2638;SDS011;1329;51.384;7.122;2023-05-10T10:38:35;16.95;;;13.75;;
2638;SDS011;1329;51.384;7.122;2023-05-10T10:41:09;16.55;;;13.57;;
2638;SDS011;1329;51.384;7.122;2023-05-10T10:43:37;15.85;;;12.75;;
2638;SDS011;1329;51.384;7.122;2023-05-10T10:46:10;15.52;;;12.90;;
2638;SDS011;1329;51.384;7.122;2023-05-10T10:48:39;15.82;;;12.93;;
2638;SDS011;1329;51.384;7.122;2023-05-10T10:51:07;13.75;;;11.75;;
2638;SDS011;1329;51.384;7.122;2023-05-10T10:53:34;15.52;;;13.32;;
2638;SDS011;1329;51.384;7.122;2023-05-10T10:56:05;13.93;;;11.77;;
2638;SDS011;1329;51.384;7.122;2023-05-10T10:58:34;14.73;;;12.23;;
2638;SDS011;1329;51.384;7.122;2023-05-10T11:01:11;14.48;;;12.32;;
2638;SDS011;1329;51.384;7.122;2023-05-10T11:03:41;13.23;;;11.70;;
2638;SDS011;1329;51.384;7.122;2023-05-10T11:06:42;13.07;;;11.20;;
2638;SDS011;1329;51.384;7.122;2023-05-10T11:09:10;14.88;;;12.63;;
2638;SDS011;1329;51.384;7.122;2023-05-10T11:11:48;13.50;;;12.10;;
2638;SDS011;1329;51.384;7.122;2023-05-10T11:14:20;13.85;;;12.18;;
2638;SDS011;1329;51.384;7.122;2023-05-10T11:16:49;12.73;;;11.35;;
2638;SDS011;1329;51.384;7.122;2023-05-10T11:19:17;14.43;;;11.55;;
2638;SDS011;1329;51.384;7.122;2023-05-10T11:21:45;15.07;;;13.48;;
2638;SDS011;1329;51.384;7.122;2023-05-10T11:24:14;16.88;;;15.18;;
2638;SDS011;1329;51.384;7.122;2023-05-10T11:26:43;17.50;;;15.25;;
2638;SDS011;1329;51.384;7.122;2023-05-10T11:29:11;16.73;;;14.75;;
2638;SDS011;1329;51.384;7.122;2023-05-10T11:31:42;18.60;;;16.42;;
2638;SDS011;1329;51.384;7.122;2023-05-10T11:34:13;18.60;;;16.45;;
2638;SDS011;1329;51.384;7.122;2023-05-10T11:36:50;19.27;;;14.90;;
2638;SDS011;1329;51.384;7.122;2023-05-10T11:39:18;16.65;;;14.88;;
2638;SDS011;1329;51.384;7.122;2023-05-10T11:41:49;17.90;;;14.50;;
2638;SDS011;1329;51.384;7.122;2023-05-10T11:44:16;17.75;;;14.60;;
2638;SDS011;1329;51.384;7.122;2023-05-10T11:46:43;18.38;;;14.95;;
2638;SDS011;1329;51.384;7.122;2023-05-10T11:49:10;16.55;;;13.40;;
2638;SDS011;1329;51.384;7.122;2023-05-10T11:51:39;14.23;;;12.43;;
2638;SDS011;1329;51.384;7.122;2023-05-10T11:54:08;13.50;;;12.10;;
2638;SDS011;1329;51.384;7.122;2023-05-10T11:56:37;14.30;;;12.38;;
2638;SDS011;1329;51.384;7.122;2023-05-10T11:59:05;14.38;;;12.07;;
2638;SDS011;1329;51.384;7.122;2023-05-10T12:01:32;16.02;;;12.05;;
2638;SDS011;1329;51.384;7.122;2023-05-10T12:04:00;12.82;;;11.50;;
2638;SDS011;1329;51.384;7.122;2023-05-10T12:06:30;11.50;;;10.27;;
2638;SDS011;1329;51.384;7.122;2023-05-10T12:09:05;11.32;;;10.18;;
2638;SDS011;1329;51.384;7.122;2023-05-10T12:11:36;11.98;;;10.27;;
2638;SDS011;1329;51.384;7.122;2023-05-10T12:14:05;11.68;;;10.25;;
2638;SDS011;1329;51.384;7.122;2023-05-10T12:16:32;10.90;;;9.75;;
2638;SDS011;1329;51.384;7.122;2023-05-10T12:18:59;11.82;;;10.57;;
2638;SDS011;1329;51.384;7.122;2023-05-10T12:21:29;13.10;;;11.75;;
2638;SDS011;1329;51.384;7.122;2023-05-10T12:23:59;14.40;;;12.90;;
2638;SDS011;1329;51.384;7.122;2023-05-10T12:26:28;13.93;;;12.52;;
2638;SDS011;1329;51.384;7.122;2023-05-10T12:29:11;13.45;;;12.15;;
2638;SDS011;1329;51.384;7.122;2023-05-10T12:31:50;12.50;;;11.20;;
2638;SDS011;1329;51.384;7.122;2023-05-10T12:34:25;13.55;;;12.07;;
2638;SDS011;1329;51.384;7.122;2023-05-10T12:36:54;12.90;;;11.60;;
2638;SDS011;1329;51.384;7.122;2023-05-10T12:39:22;13.20;;;11.77;;
2638;SDS011;1329;51.384;7.122;2023-05-10T12:41:49;12.18;;;10.93;;
2638;SDS011;1329;51.384;7.122;2023-05-10T12:44:17;12.73;;;11.50;;
2638;SDS011;1329;51.384;7.122;2023-05-10T12:46:45;12.52;;;11.23;;
2638;SDS011;1329;51.384;7.122;2023-05-10T12:49:11;12.73;;;11.52;;
2638;SDS011;1329;51.384;7.122;2023-05-10T12:51:38;13.35;;;11.05;;
2638;SDS011;1329;51.384;7.122;2023-05-10T12:54:07;13.85;;;12.25;;
2638;SDS011;1329;51.384;7.122;2023-05-10T12:56:33;13.68;;;11.73;;
2638;SDS011;1329;51.384;7.122;2023-05-10T12:59:01;15.23;;;13.73;;
2638;SDS011;1329;51.384;7.122;2023-05-10T13:01:28;16.05;;;14.48;;
2638;SDS011;1329;51.384;7.122;2023-05-10T13:03:55;16.02;;;14.48;;
2638;SDS011;1329;51.384;7.122;2023-05-10T13:06:22;15.48;;;14.07;;
2638;SDS011;1329;51.384;7.122;2023-05-10T13:08:49;15.27;;;13.85;;
2638;SDS011;1329;51.384;7.122;2023-05-10T13:11:18;15.70;;;14.27;;
2638;SDS011;1329;51.384;7.122;2023-05-10T13:13:46;14.98;;;13.57;;
2638;SDS011;1329;51.384;7.122;2023-05-10T13:16:13;14.90;;;13.45;;
2638;SDS011;1329;51.384;7.122;2023-05-10T13:18:40;13.88;;;12.63;;
2638;SDS011;1329;51.384;7.122;2023-05-10T13:21:07;13.75;;;12.38;;
2638;SDS011;1329;51.384;7.122;2023-05-10T13:23:34;12.40;;;11.30;;
2638;SDS011;1329;51.384;7.122;2023-05-10T13:26:01;11.35;;;10.35;;
2638;SDS011;1329;51.384;7.122;2023-05-10T13:28:30;9.88;;;9.02;;
2638;SDS011;1329;51.384;7.122;2023-05-10T13:30:57;9.57;;;8.68;;
2638;SDS011;1329;51.384;7.122;2023-05-10T13:33:25;8.30;;;7.57;;
2638;SDS011;1329;51.384;7.122;2023-05-10T13:35:51;8.27;;;7.47;;
2638;SDS011;1329;51.384;7.122;2023-05-10T13:38:18;8.00;;;7.20;;
2638;SDS011;1329;51.384;7.122;2023-05-10T13:40:45;8.50;;;7.72;;
2638;SDS011;1329;51.384;7.122;2023-05-10T13:43:17;8.18;;;7.45;;
2638;SDS011;1329;51.384;7.122;2023-05-10T13:45:46;8.35;;;7.57;;
2638;SDS011;1329;51.384;7.122;2023-05-10T13:48:13;8.30;;;7.57;;
2638;SDS011;1329;51.384;7.122;2023-05-10T13:50:40;8.48;;;7.70;;
2638;SDS011;1329;51.384;7.122;2023-05-10T13:53:10;7.90;;;7.10;;
2638;SDS011;1329;51.384;7.122;2023-05-10T13:55:39;6.82;;;6.22;;
2638;SDS011;1329;51.384;7.122;2023-05-10T13:58:06;6.65;;;6.05;;
2638;SDS011;1329;51.384;7.122;2023-05-10T14:00:34;7.35;;;6.70;;
2638;SDS011;1329;51.384;7.122;2023-05-10T14:03:02;7.32;;;6.72;;
2638;SDS011;1329;51.384;7.122;2023-05-10T14:05:30;7.70;;;6.97;;
2638;SDS011;1329;51.384;7.122;2023-05-10T14:07:56;7.35;;;6.75;;
2638;SDS011;1329;51.384;7.122;2023-05-10T14:10:27;8.10;;;7.30;;
2638;SDS011;1329;51.384;7.122;2023-05-10T14:12:54;7.93;;;7.22;;
2638;SDS011;1329;51.384;7.122;2023-05-10T14:15:21;7.70;;;7.00;;
2638;SDS011;1329;51.384;7.122;2023-05-10T14:17:50;8.63;;;7.82;;
2638;SDS011;1329;51.384;7.122;2023-05-10T14:20:20;8.68;;;7.88;;
2638;SDS011;1329;51.384;7.122;2023-05-10T14:22:48;9.93;;;8.80;;
2638;SDS011;1329;51.384;7.122;2023-05-10T14:25:15;9.23;;;8.32;;
2638;SDS011;1329;51.384;7.122;2023-05-10T14:27:45;9.45;;;8.55;;
2638;SDS011;1329;51.384;7.122;2023-05-10T14:30:13;10.20;;;9.23;;
2638;SDS011;1329;51.384;7.122;2023-05-10T14:32:41;10.10;;;9.10;;
2638;SDS011;1329;51.384;7.122;2023-05-10T14:35:08;10.32;;;9.32;;
2638;SDS011;1329;51.384;7.122;2023-05-10T14:37:37;10.00;;;9.00;;
2638;SDS011;1329;51.384;7.122;2023-05-10T14:40:04;10.27;;;9.20;;
2638;SDS011;1329;51.384;7.122;2023-05-10T14:42:34;10.43;;;9.50;;
2638;SDS011;1329;51.384;7.122;2023-05-10T14:45:01;10.45;;;9.52;;
2638;SDS011;1329;51.384;7.122;2023-05-10T14:47:28;9.93;;;9.00;;
2638;SDS011;1329;51.384;7.122;2023-05-10T14:49:55;10.02;;;9.13;;
2638;SDS011;1329;51.384;7.122;2023-05-10T14:52:23;9.60;;;8.65;;
2638;SDS011;1329;51.384;7.122;2023-05-10T14:54:52;10.70;;;9.70;;
2638;SDS011;1329;51.384;7.122;2023-05-10T14:57:19;11.48;;;10.48;;
2638;SDS011;1329;51.384;7.122;2023-05-10T14:59:46;11.07;;;10.07;;
2638;SDS011;1329;51.384;7.122;2023-05-10T15:02:13;11.43;;;10.43;;
2638;SDS011;1329;51.384;7.122;2023-05-10T15:04:43;10.80;;;9.80;;